Time;durP1;ratioP1;P1;durP2;ratioP2;P2;SDS_P1;SDS_P2;PMS_P1;PMS_P2;Temp;Humidity;BMP_temperature;BMP_pressure;BME280_temperature;BME280_humidity;BME280_pressure;Samples;Min_cycle;Max_cycle;Signal;HPM_P1;HPM_P2
2023/03/24 00:00:10;;;;;;;10.2;6.4;;;;;;;15.3;57.4;98220;;;;
2023/03/24 00:11:10;;;;;;;11.4;7.6;;;;;;;15.3;57.5;98210;;;;
2023/03/24 00:21:11;;;;;;;11.4;7.6;;;;;;;15.3;57.8;98210;;;;
2023/03/24 00:32:09;;;;;;;11.4;7.6;;;;;;;15.4;57.3;98220;;;;
2023/03/24 00:42:10;;;;;;;10.9;5.8;;;;;;;15.3;57.6;98210;;;;
2023/03/24 00:53:09;;;;;;;10.9;5.8;;;;;;;15.3;57.3;98190;;;;
2023/03/24 01:04:10;;;;;;;11.6;6.6;;;;;;;15.3;57.3;98190;;;;
2023/03/24 01:14:09;;;;;;;11.6;6.6;;;;;;;15.1;57.8;98180;;;;
2023/03/24 01:25:09;;;;;;;11.6;6.6;;;;;;;15;58.1;98170;;;;
2023/03/24 01:35:10;;;;;;;11.1;6.1;;;;;;;15;58.4;98170;;;;
2023/03/24 01:46:10;;;;;;;11.1;6.1;;;;;;;15.1;58.3;98160;;;;
2023/03/24 01:57:10;;;;;;;11.1;6.1;;;;;;;15.1;58.5;98160;;;;
2023/03/24 02:08:10;;;;;;;10.7;6.9;;;;;;;15.2;58.4;98160;;;;
2023/03/24 02:19:11;;;;;;;10.7;6.9;;;;;;;15.2;58.4;98150;;;;
2023/03/24 02:29:09;;;;;;;10.7;6.9;;;;;;;15.1;58.6;98140;;;;
2023/03/24 02:39:10;;;;;;;9.4;6.3;;;;;;;15.1;58.6;98130;;;;
2023/03/24 02:50:10;;;;;;;9.4;6.3;;;;;;;15.1;58.6;98130;;;;
2023/03/24 03:00:13;;;;;;;9.4;6.3;;;;;;;15.1;58.8;98120;;;;
2023/03/24 03:11:10;;;;;;;9.3;5.9;;;;;;;15;59.6;98110;;;;
2023/03/24 03:22:10;;;;;;;9.3;5.9;;;;;;;15;59.4;98100;;;;
2023/03/24 03:32:10;;;;;;;9.3;5.9;;;;;;;15;59.7;98110;;;;
2023/03/24 03:42:10;;;;;;;10.1;5.9;;;;;;;14.9;59.8;98110;;;;
2023/03/24 03:53:10;;;;;;;10.1;5.9;;;;;;;14.9;59.8;98090;;;;
2023/03/24 04:04:10;;;;;;;10.5;6.6;;;;;;;14.7;60.7;98090;;;;
2023/03/24 04:14:10;;;;;;;10.5;6.6;;;;;;;14.5;60.9;98080;;;;
2023/03/24 04:25:11;;;;;;;10.5;6.6;;;;;;;14.3;60.9;98080;;;;
2023/03/24 04:36:17;;;;;;;8.8;6.1;;;;;;;14.1;61.3;98080;;;;
2023/03/24 04:47:10;;;;;;;8.8;6.1;;;;;;;14.4;61.9;98090;;;;
2023/03/24 04:58:10;;;;;;;8.8;6.1;;;;;;;14.4;62.9;98100;;;;
2023/03/24 05:09:10;;;;;;;8;6.1;;;;;;;14.4;63.3;98110;;;;
2023/03/24 05:20:10;;;;;;;8;6.1;;;;;;;14.4;64.1;98110;;;;
2023/03/24 05:30:10;;;;;;;8;6.1;;;;;;;14.5;63.3;98110;;;;
2023/03/24 05:41:10;;;;;;;9.7;6.8;;;;;;;14.5;63.6;98110;;;;
2023/03/24 05:52:10;;;;;;;9.7;6.8;;;;;;;14.6;64;98120;;;;
2023/03/24 06:02:10;;;;;;;9.7;6.8;;;;;;;14.5;65.1;98120;;;;
2023/03/24 06:12:10;;;;;;;9.1;6.7;;;;;;;14.5;67.4;98130;;;;
2023/03/24 06:23:10;;;;;;;9.1;6.7;;;;;;;14.5;69.5;98130;;;;
2023/03/24 06:33:10;;;;;;;9.4;7;;;;;;;14.4;70.1;98140;;;;
2023/03/24 06:44:10;;;;;;;9.4;7;;;;;;;14.4;70.8;98130;;;;
2023/03/24 06:55:10;;;;;;;9.4;7;;;;;;;14.3;73;98120;;;;
2023/03/24 07:06:10;;;;;;;12.6;6.8;;;;;;;14.6;73.5;98110;;;;
2023/03/24 07:17:10;;;;;;;12.6;6.8;;;;;;;14.9;73.6;98120;;;;
2023/03/24 07:28:10;;;;;;;12.6;6.8;;;;;;;15.3;71.7;98120;;;;
2023/03/24 07:39:10;;;;;;;9.6;6.5;;;;;;;15.6;70.6;98100;;;;
2023/03/24 07:49:10;;;;;;;9.6;6.5;;;;;;;15.9;68.4;98100;;;;
2023/03/24 07:59:10;;;;;;;9.6;6.5;;;;;;;16.3;67.1;98070;;;;
2023/03/24 08:10:10;;;;;;;8.7;6.2;;;;;;;16.9;67;98060;;;;
2023/03/24 08:20:13;;;;;;;8.7;6.2;;;;;;;17.5;63.8;98040;;;;
2023/03/24 08:30:10;;;;;;;8.7;6.2;;;;;;;17.9;64.6;98020;;;;
2023/03/24 08:41:10;;;;;;;8.7;5.6;;;;;;;18.3;60.4;98010;;;;
2023/03/24 08:51:10;;;;;;;8.7;5.6;;;;;;;18.6;60.7;98000;;;;
2023/03/24 09:02:10;;;;;;;8.7;5.6;;;;;;;19.3;56.7;97990;;;;
2023/03/24 09:12:10;;;;;;;8.7;5.6;;;;;;;20.3;55.2;97980;;;;
2023/03/24 09:22:10;;;;;;;8.7;5.6;;;;;;;20.7;54;97960;;;;
2023/03/24 09:33:10;;;;;;;8.6;5.2;;;;;;;20.6;50.7;97950;;;;
2023/03/24 09:43:10;;;;;;;8.6;5.2;;;;;;;20.8;51;97940;;;;
2023/03/24 09:53:10;;;;;;;8.6;5.2;;;;;;;20.8;49.3;97920;;;;
2023/03/24 10:03:10;;;;;;;7.7;4.9;;;;;;;20.9;49.9;97900;;;;
2023/03/24 10:14:10;;;;;;;7.7;4.9;;;;;;;21.3;47.3;97890;;;;
2023/03/24 10:24:10;;;;;;;7.7;4.9;;;;;;;22;47.9;97880;;;;
2023/03/24 10:35:10;;;;;;;12.8;7.6;;;;;;;22.5;45.8;97860;;;;
2023/03/24 10:45:10;;;;;;;12.8;7.6;;;;;;;22.9;44.7;97860;;;;
2023/03/24 10:55:10;;;;;;;12.8;7.6;;;;;;;23.1;44.5;97850;;;;
2023/03/24 11:06:11;;;;;;;8.7;5.1;;;;;;;23;41.9;97840;;;;
2023/03/24 11:16:10;;;;;;;8.7;5.1;;;;;;;23;40.5;97830;;;;
2023/03/24 11:27:11;;;;;;;8.7;5.1;;;;;;;23.2;38.6;97820;;;;
2023/03/24 11:37:10;;;;;;;5.1;3;;;;;;;22.8;38;97790;;;;
2023/03/24 11:48:10;;;;;;;5.1;3;;;;;;;22.4;38;97800;;;;
2023/03/24 11:58:10;;;;;;;5.1;3;;;;;;;22.4;39;97790;;;;
2023/03/24 12:09:10;;;;;;;4.1;2.2;;;;;;;22.4;38.6;97770;;;;
2023/03/24 12:19:10;;;;;;;4.1;2.2;;;;;;;22.3;37.8;97760;;;;
2023/03/24 12:29:10;;;;;;;4.1;2.2;;;;;;;22.5;38.5;97760;;;;
2023/03/24 12:39:10;;;;;;;7.3;2.9;;;;;;;22.8;38.1;97750;;;;
2023/03/24 12:49:10;;;;;;;7.3;2.9;;;;;;;22.8;38;97740;;;;
2023/03/24 13:00:11;;;;;;;7.3;2.9;;;;;;;22.8;40.2;97730;;;;
2023/03/24 13:10:10;;;;;;;8.4;3.4;;;;;;;22.5;37.7;97720;;;;
2023/03/24 13:20:11;;;;;;;8.4;3.4;;;;;;;22.4;38;97710;;;;
2023/03/24 13:30:10;;;;;;;8.4;3.4;;;;;;;22.3;38.8;97720;;;;
2023/03/24 13:41:10;;;;;;;7.5;3.1;;;;;;;22;40;97710;;;;
2023/03/24 13:52:11;;;;;;;7.5;3.1;;;;;;;21.9;40.8;97710;;;;
2023/03/24 14:02:10;;;;;;;7.5;3.1;;;;;;;21.5;43.3;97700;;;;
2023/03/24 14:12:11;;;;;;;5.6;3;;;;;;;21.2;43.7;97690;;;;
2023/03/24 14:22:10;;;;;;;5.6;3;;;;;;;20.8;46.1;97680;;;;
2023/03/24 14:32:10;;;;;;;5.6;3;;;;;;;20.3;45.4;97660;;;;
2023/03/24 14:43:10;;;;;;;5.7;3.5;;;;;;;20.1;45.9;97660;;;;
2023/03/24 14:54:10;;;;;;;5.7;3.5;;;;;;;20.1;44.8;97660;;;;
2023/03/24 15:05:10;;;;;;;7;3.8;;;;;;;20.2;44.9;97640;;;;
2023/03/24 15:15:10;;;;;;;7;3.8;;;;;;;20.2;44.6;97640;;;;
2023/03/24 15:25:11;;;;;;;7;3.8;;;;;;;20.1;44.6;97620;;;;
2023/03/24 15:36:10;;;;;;;7.6;5;;;;;;;19.9;45.5;97620;;;;
2023/03/24 15:47:10;;;;;;;7.6;5;;;;;;;19.7;45.6;97620;;;;
2023/03/24 15:58:10;;;;;;;7.6;5;;;;;;;19.5;45.3;97620;;;;
2023/03/24 16:08:10;;;;;;;7.8;4.4;;;;;;;19.4;45.5;97630;;;;
2023/03/24 16:18:10;;;;;;;7.8;4.4;;;;;;;19.2;45.1;97640;;;;
2023/03/24 16:28:10;;;;;;;7.8;4.4;;;;;;;19;45;97640;;;;
2023/03/24 16:38:10;;;;;;;7;4.1;;;;;;;19;45.9;97650;;;;
2023/03/24 16:48:10;;;;;;;7;4.1;;;;;;;18.9;46;97670;;;;
2023/03/24 16:59:13;;;;;;;7;4.1;;;;;;;18.8;46.7;97680;;;;
2023/03/24 17:09:11;;;;;;;7.3;4.8;;;;;;;18.5;48.9;97690;;;;
2023/03/24 17:20:10;;;;;;;7.3;4.8;;;;;;;18.4;49.9;97700;;;;
2023/03/24 17:31:10;;;;;;;7.3;4.8;;;;;;;18.2;50.5;97710;;;;
2023/03/24 17:42:10;;;;;;;7.5;4.6;;;;;;;18;51.1;97710;;;;
2023/03/24 17:52:10;;;;;;;7.5;4.6;;;;;;;17.8;51.9;97710;;;;
2023/03/24 18:03:10;;;;;;;10.3;6.6;;;;;;;17.6;54.3;97710;;;;
2023/03/24 18:14:10;;;;;;;10.3;6.6;;;;;;;16.9;58.9;97740;;;;
2023/03/24 18:24:10;;;;;;;10.3;6.6;;;;;;;16.7;61.3;97750;;;;
2023/03/24 18:35:10;;;;;;;13.2;7.2;;;;;;;16.3;62.8;97770;;;;
2023/03/24 18:45:16;;;;;;;13.2;7.2;;;;;;;16;65.1;97780;;;;
2023/03/24 18:56:10;;;;;;;13.2;7.2;;;;;;;15.5;64.6;97760;;;;
2023/03/24 19:06:10;;;;;;;10.9;6.8;;;;;;;15.3;65.5;97770;;;;
2023/03/24 19:16:10;;;;;;;10.9;6.8;;;;;;;15.1;66.1;97760;;;;
2023/03/24 19:27:10;;;;;;;10.9;6.8;;;;;;;15;66.9;97780;;;;
2023/03/24 19:38:10;;;;;;;7.6;5.1;;;;;;;14.7;67.6;97750;;;;
2023/03/24 19:49:10;;;;;;;7.6;5.1;;;;;;;14.6;67.7;97720;;;;
2023/03/24 19:59:10;;;;;;;7.6;5.1;;;;;;;14.5;68;97720;;;;
2023/03/24 20:10:10;;;;;;;9.7;6.5;;;;;;;14.6;68.5;97720;;;;
2023/03/24 20:20:10;;;;;;;9.7;6.5;;;;;;;14.5;68.5;97700;;;;
2023/03/24 20:31:10;;;;;;;9.7;6.5;;;;;;;14.6;68.2;97710;;;;
2023/03/24 20:42:10;;;;;;;11.1;7.3;;;;;;;14.6;68.1;97710;;;;
2023/03/24 20:53:10;;;;;;;11.1;7.3;;;;;;;14.7;67.9;97730;;;;
2023/03/24 21:03:10;;;;;;;9.6;6.8;;;;;;;14.7;67.7;97740;;;;
2023/03/24 21:13:10;;;;;;;9.6;6.8;;;;;;;14.7;68.8;97740;;;;
2023/03/24 21:24:12;;;;;;;9.6;6.8;;;;;;;14.5;70.6;97740;;;;
2023/03/24 21:34:10;;;;;;;10.5;7.5;;;;;;;14.3;70.8;97730;;;;
2023/03/24 21:44:10;;;;;;;10.5;7.5;;;;;;;14.2;71;97720;;;;
2023/03/24 21:54:13;;;;;;;10.5;7.5;;;;;;;13.9;71.6;97710;;;;
2023/03/24 22:04:12;;;;;;;9;6.2;;;;;;;13.7;72.4;97710;;;;
2023/03/24 22:15:10;;;;;;;9;6.2;;;;;;;13.7;72.5;97720;;;;
2023/03/24 22:25:10;;;;;;;9;6.2;;;;;;;13.7;72.1;97710;;;;
2023/03/24 22:36:10;;;;;;;9.4;6;;;;;;;13.8;71.5;97700;;;;
2023/03/24 22:46:10;;;;;;;9.4;6;;;;;;;13.6;71.5;97700;;;;
2023/03/24 22:56:10;;;;;;;9.4;6;;;;;;;13.4;71.3;97690;;;;
2023/03/24 23:06:10;;;;;;;7.3;5.5;;;;;;;13.1;71.1;97680;;;;
2023/03/24 23:17:10;;;;;;;7.3;5.5;;;;;;;12.7;71.9;97690;;;;
2023/03/24 23:27:10;;;;;;;7.3;5.5;;;;;;;12.5;72.3;97700;;;;
2023/03/24 23:38:10;;;;;;;7.4;4.3;;;;;;;12.2;72.7;97690;;;;
2023/03/24 23:48:11;;;;;;;7.4;4.3;;;;;;;12;74.4;97670;;;;
2023/03/24 23:58:10;;;;;;;7.4;4.3;;;;;;;11.7;75.7;97680;;;;
